sensor_id;sensor_type;location;lat;lon;timestamp;P1;durP1;ratioP1;P2;durP2;ratioP2
15806;SDS011;8005;51.368;6.140;2022-10-22T12:30:28;7.20;;;1.10;;
15806;SDS011;8005;51.368;6.140;2022-10-22T12:58:11;6.85;;;1.33;;
15806;SDS011;8005;51.368;6.140;2022-10-22T12:59:48;5.70;;;1.23;;
15806;SDS011;8005;51.368;6.140;2022-10-22T13:06:28;10.88;;;2.03;;
15806;SDS011;8005;51.368;6.140;2022-10-22T13:11:56;6.05;;;1.05;;
15806;SDS011;8005;51.368;6.140;2022-10-22T13:15:19;7.70;;;1.10;;
15806;SDS011;8005;51.368;6.140;2022-10-22T13:18:47;8.57;;;1.77;;
15806;SDS011;8005;51.368;6.140;2022-10-22T13:20:20;9.65;;;1.67;;
15806;SDS011;8005;51.368;6.140;2022-10-22T13:21:58;7.07;;;1.25;;
15806;SDS011;8005;51.368;6.140;2022-10-22T13:23:31;3.70;;;1.02;;
15806;SDS011;8005;51.368;6.140;2022-10-22T13:28:54;5.95;;;1.05;;
15806;SDS011;8005;51.368;6.140;2022-10-22T13:30:28;6.28;;;1.10;;
15806;SDS011;8005;51.368;6.140;2022-10-22T13:32:00;6.57;;;1.60;;
15806;SDS011;8005;51.368;6.140;2022-10-22T13:33:36;4.47;;;0.73;;
15806;SDS011;8005;51.368;6.140;2022-10-22T13:35:11;7.38;;;0.98;;
15806;SDS011;8005;51.368;6.140;2022-10-22T13:36:46;4.57;;;1.15;;
15806;SDS011;8005;51.368;6.140;2022-10-22T13:38:19;7.50;;;1.50;;
15806;SDS011;8005;51.368;6.140;2022-10-22T13:39:51;6.43;;;1.52;;
15806;SDS011;8005;51.368;6.140;2022-10-22T13:41:27;8.75;;;1.65;;
15806;SDS011;8005;51.368;6.140;2022-10-22T13:42:59;5.78;;;1.00;;
15806;SDS011;8005;51.368;6.140;2022-10-22T13:44:31;8.48;;;1.25;;
15806;SDS011;8005;51.368;6.140;2022-10-22T13:46:07;5.72;;;1.00;;
15806;SDS011;8005;51.368;6.140;2022-10-22T13:47:39;6.38;;;0.93;;
15806;SDS011;8005;51.368;6.140;2022-10-22T13:50:44;8.07;;;1.55;;
15806;SDS011;8005;51.368;6.140;2022-10-22T13:52:18;4.72;;;0.93;;
15806;SDS011;8005;51.368;6.140;2022-10-22T13:53:52;5.65;;;1.17;;
15806;SDS011;8005;51.368;6.140;2022-10-22T13:55:27;5.97;;;1.00;;
15806;SDS011;8005;51.368;6.140;2022-10-22T13:57:00;4.38;;;1.10;;
15806;SDS011;8005;51.368;6.140;2022-10-22T13:58:31;6.25;;;1.08;;
15806;SDS011;8005;51.368;6.140;2022-10-22T14:00:03;5.45;;;0.82;;
15806;SDS011;8005;51.368;6.140;2022-10-22T14:01:42;7.03;;;1.63;;
15806;SDS011;8005;51.368;6.140;2022-10-22T14:03:14;4.20;;;1.30;;
15806;SDS011;8005;51.368;6.140;2022-10-22T14:06:18;5.18;;;1.10;;
15806;SDS011;8005;51.368;6.140;2022-10-22T14:07:51;10.10;;;1.15;;
15806;SDS011;8005;51.368;6.140;2022-10-22T14:09:23;10.33;;;1.10;;
15806;SDS011;8005;51.368;6.140;2022-10-22T14:10:54;7.25;;;1.00;;
15806;SDS011;8005;51.368;6.140;2022-10-22T14:12:26;6.05;;;1.30;;
15806;SDS011;8005;51.368;6.140;2022-10-22T14:13:58;4.93;;;1.33;;
15806;SDS011;8005;51.368;6.140;2022-10-22T14:15:30;5.55;;;1.48;;
15806;SDS011;8005;51.368;6.140;2022-10-22T14:17:02;5.57;;;1.02;;
15806;SDS011;8005;51.368;6.140;2022-10-22T14:18:33;4.55;;;0.90;;
15806;SDS011;8005;51.368;6.140;2022-10-22T14:20:06;10.85;;;2.17;;
15806;SDS011;8005;51.368;6.140;2022-10-22T14:21:37;7.32;;;1.25;;
15806;SDS011;8005;51.368;6.140;2022-10-22T14:23:11;6.72;;;1.38;;
15806;SDS011;8005;51.368;6.140;2022-10-22T14:24:44;5.38;;;1.00;;
15806;SDS011;8005;51.368;6.140;2022-10-22T14:26:29;2.33;;;0.80;;
15806;SDS011;8005;51.368;6.140;2022-10-22T14:28:04;5.97;;;0.70;;
15806;SDS011;8005;51.368;6.140;2022-10-22T14:29:36;7.78;;;1.20;;
15806;SDS011;8005;51.368;6.140;2022-10-22T14:31:08;6.93;;;0.80;;
15806;SDS011;8005;51.368;6.140;2022-10-22T14:32:41;7.72;;;1.40;;
15806;SDS011;8005;51.368;6.140;2022-10-22T14:34:14;4.55;;;0.90;;
15806;SDS011;8005;51.368;6.140;2022-10-22T14:35:49;6.32;;;1.05;;
15806;SDS011;8005;51.368;6.140;2022-10-22T14:37:21;6.50;;;1.23;;
15806;SDS011;8005;51.368;6.140;2022-10-22T14:38:53;6.82;;;1.13;;
15806;SDS011;8005;51.368;6.140;2022-10-22T14:40:25;3.17;;;0.80;;
15806;SDS011;8005;51.368;6.140;2022-10-22T14:41:57;5.32;;;0.90;;
15806;SDS011;8005;51.368;6.140;2022-10-22T14:43:29;9.23;;;1.15;;
15806;SDS011;8005;51.368;6.140;2022-10-22T14:45:01;7.07;;;1.05;;
15806;SDS011;8005;51.368;6.140;2022-10-22T14:46:34;6.68;;;1.00;;
15806;SDS011;8005;51.368;6.140;2022-10-22T14:49:38;5.97;;;1.25;;
15806;SDS011;8005;51.368;6.140;2022-10-22T14:51:13;6.38;;;1.17;;
15806;SDS011;8005;51.368;6.140;2022-10-22T14:52:45;5.13;;;1.20;;
15806;SDS011;8005;51.368;6.140;2022-10-22T14:54:17;7.32;;;1.17;;
15806;SDS011;8005;51.368;6.140;2022-10-22T14:55:49;5.13;;;0.90;;
15806;SDS011;8005;51.368;6.140;2022-10-22T14:57:21;5.07;;;0.75;;
15806;SDS011;8005;51.368;6.140;2022-10-22T14:58:53;4.00;;;0.80;;
15806;SDS011;8005;51.368;6.140;2022-10-22T15:00:25;4.82;;;1.17;;
15806;SDS011;8005;51.368;6.140;2022-10-22T15:01:57;4.88;;;0.95;;
15806;SDS011;8005;51.368;6.140;2022-10-22T15:03:29;4.22;;;0.90;;
15806;SDS011;8005;51.368;6.140;2022-10-22T15:05:03;6.10;;;1.00;;
15806;SDS011;8005;51.368;6.140;2022-10-22T15:06:35;10.02;;;1.13;;
15806;SDS011;8005;51.368;6.140;2022-10-22T15:08:06;6.13;;;1.20;;
15806;SDS011;8005;51.368;6.140;2022-10-22T15:09:38;8.70;;;1.30;;
15806;SDS011;8005;51.368;6.140;2022-10-22T15:11:10;5.45;;;0.88;;
15806;SDS011;8005;51.368;6.140;2022-10-22T15:14:14;4.45;;;0.68;;
15806;SDS011;8005;51.368;6.140;2022-10-22T15:15:47;7.18;;;1.10;;
15806;SDS011;8005;51.368;6.140;2022-10-22T15:17:21;4.07;;;1.10;;
15806;SDS011;8005;51.368;6.140;2022-10-22T15:18:54;5.15;;;1.10;;
15806;SDS011;8005;51.368;6.140;2022-10-22T15:20:28;8.73;;;1.48;;
15806;SDS011;8005;51.368;6.140;2022-10-22T15:22:02;5.18;;;1.10;;
15806;SDS011;8005;51.368;6.140;2022-10-22T15:23:35;5.47;;;1.27;;
15806;SDS011;8005;51.368;6.140;2022-10-22T15:25:06;10.43;;;1.58;;
15806;SDS011;8005;51.368;6.140;2022-10-22T15:26:38;6.57;;;1.17;;
15806;SDS011;8005;51.368;6.140;2022-10-22T15:28:10;8.70;;;1.10;;
15806;SDS011;8005;51.368;6.140;2022-10-22T15:29:42;3.72;;;1.40;;
15806;SDS011;8005;51.368;6.140;2022-10-22T15:31:14;5.40;;;1.30;;
15806;SDS011;8005;51.368;6.140;2022-10-22T15:32:46;7.70;;;1.30;;
15806;SDS011;8005;51.368;6.140;2022-10-22T15:34:18;4.28;;;1.08;;
15806;SDS011;8005;51.368;6.140;2022-10-22T15:37:22;8.45;;;1.70;;
15806;SDS011;8005;51.368;6.140;2022-10-22T15:38:53;4.88;;;1.50;;
15806;SDS011;8005;51.368;6.140;2022-10-22T15:40:25;6.63;;;1.45;;
15806;SDS011;8005;51.368;6.140;2022-10-22T15:41:58;8.50;;;1.65;;
15806;SDS011;8005;51.368;6.140;2022-10-22T15:43:30;6.53;;;1.42;;
15806;SDS011;8005;51.368;6.140;2022-10-22T15:45:02;6.13;;;1.67;;
15806;SDS011;8005;51.368;6.140;2022-10-22T15:46:34;7.60;;;1.85;;
15806;SDS011;8005;51.368;6.140;2022-10-22T15:48:06;4.15;;;1.92;;
15806;SDS011;8005;51.368;6.140;2022-10-22T15:49:38;7.78;;;2.72;;
15806;SDS011;8005;51.368;6.140;2022-10-22T15:51:10;7.10;;;2.38;;
15806;SDS011;8005;51.368;6.140;2022-10-22T15:52:42;8.73;;;2.42;;
15806;SDS011;8005;51.368;6.140;2022-10-22T15:54:18;6.38;;;2.40;;
15806;SDS011;8005;51.368;6.140;2022-10-22T15:55:52;11.23;;;2.88;;
15806;SDS011;8005;51.368;6.140;2022-10-22T15:58:58;6.35;;;2.28;;
15806;SDS011;8005;51.368;6.140;2022-10-22T16:03:40;7.70;;;2.50;;
15806;SDS011;8005;51.368;6.140;2022-10-22T16:05:12;7.57;;;2.42;;
15806;SDS011;8005;51.368;6.140;2022-10-22T16:06:44;9.52;;;2.42;;
15806;SDS011;8005;51.368;6.140;2022-10-22T16:08:16;7.40;;;2.28;;
15806;SDS011;8005;51.368;6.140;2022-10-22T16:09:53;9.75;;;2.95;;
15806;SDS011;8005;51.368;6.140;2022-10-22T16:11:25;6.28;;;2.67;;
15806;SDS011;8005;51.368;6.140;2022-10-22T16:12:57;5.85;;;2.08;;
15806;SDS011;8005;51.368;6.140;2022-10-22T16:14:29;5.63;;;2.10;;
15806;SDS011;8005;51.368;6.140;2022-10-22T16:16:03;6.85;;;1.92;;
15806;SDS011;8005;51.368;6.140;2022-10-22T16:17:34;7.53;;;2.85;;
15806;SDS011;8005;51.368;6.140;2022-10-22T16:19:06;10.95;;;2.65;;
15806;SDS011;8005;51.368;6.140;2022-10-22T16:20:38;7.10;;;2.03;;
15806;SDS011;8005;51.368;6.140;2022-10-22T16:22:10;9.13;;;2.35;;
15806;SDS011;8005;51.368;6.140;2022-10-22T16:23:44;5.35;;;2.25;;
15806;SDS011;8005;51.368;6.140;2022-10-22T16:25:15;9.00;;;2.25;;
15806;SDS011;8005;51.368;6.140;2022-10-22T16:26:47;7.32;;;2.75;;
15806;SDS011;8005;51.368;6.140;2022-10-22T16:28:19;6.70;;;2.08;;
15806;SDS011;8005;51.368;6.140;2022-10-22T16:29:51;7.50;;;2.28;;
15806;SDS011;8005;51.368;6.140;2022-10-22T16:31:22;6.97;;;2.70;;
15806;SDS011;8005;51.368;6.140;2022-10-22T16:32:54;10.02;;;2.80;;
15806;SDS011;8005;51.368;6.140;2022-10-22T16:34:26;6.70;;;2.50;;
15806;SDS011;8005;51.368;6.140;2022-10-22T16:35:58;6.70;;;2.65;;
15806;SDS011;8005;51.368;6.140;2022-10-22T16:37:30;8.95;;;3.00;;
15806;SDS011;8005;51.368;6.140;2022-10-22T16:39:02;12.95;;;3.67;;
15806;SDS011;8005;51.368;6.140;2022-10-22T16:40:34;9.18;;;3.10;;
15806;SDS011;8005;51.368;6.140;2022-10-22T16:42:05;9.27;;;3.47;;
15806;SDS011;8005;51.368;6.140;2022-10-22T16:43:37;8.10;;;3.97;;
15806;SDS011;8005;51.368;6.140;2022-10-22T16:45:09;15.20;;;6.57;;
15806;SDS011;8005;51.368;6.140;2022-10-22T16:46:41;13.25;;;5.10;;
15806;SDS011;8005;51.368;6.140;2022-10-22T16:48:13;13.57;;;4.57;;
15806;SDS011;8005;51.368;6.140;2022-10-22T16:49:45;11.00;;;3.93;;
15806;SDS011;8005;51.368;6.140;2022-10-22T16:51:19;15.55;;;6.50;;
15806;SDS011;8005;51.368;6.140;2022-10-22T16:52:52;11.13;;;4.78;;
15806;SDS011;8005;51.368;6.140;2022-10-22T16:54:23;11.15;;;5.30;;
15806;SDS011;8005;51.368;6.140;2022-10-22T16:55:55;15.77;;;8.40;;
15806;SDS011;8005;51.368;6.140;2022-10-22T16:57:27;19.00;;;8.85;;
15806;SDS011;8005;51.368;6.140;2022-10-22T16:58:59;17.00;;;8.32;;
15806;SDS011;8005;51.368;6.140;2022-10-22T17:00:31;15.27;;;7.18;;
15806;SDS011;8005;51.368;6.140;2022-10-22T17:02:02;14.60;;;8.07;;
15806;SDS011;8005;51.368;6.140;2022-10-22T17:03:54;13.60;;;7.32;;
15806;SDS011;8005;51.368;6.140;2022-10-22T17:05:26;11.05;;;6.53;;
15806;SDS011;8005;51.368;6.140;2022-10-22T17:06:58;15.68;;;7.32;;
15806;SDS011;8005;51.368;6.140;2022-10-22T17:08:30;12.75;;;6.45;;
15806;SDS011;8005;51.368;6.140;2022-10-22T17:10:02;11.60;;;5.05;;
15806;SDS011;8005;51.368;6.140;2022-10-22T17:11:35;12.82;;;5.88;;
15806;SDS011;8005;51.368;6.140;2022-10-22T17:13:11;11.85;;;5.50;;
15806;SDS011;8005;51.368;6.140;2022-10-22T17:14:43;8.90;;;4.50;;
15806;SDS011;8005;51.368;6.140;2022-10-22T17:16:15;10.35;;;4.22;;
15806;SDS011;8005;51.368;6.140;2022-10-22T17:17:47;10.38;;;4.75;;
15806;SDS011;8005;51.368;6.140;2022-10-22T17:19:22;7.13;;;3.78;;
15806;SDS011;8005;51.368;6.140;2022-10-22T17:20:54;12.23;;;4.22;;
15806;SDS011;8005;51.368;6.140;2022-10-22T17:22:26;12.80;;;5.43;;
15806;SDS011;8005;51.368;6.140;2022-10-22T17:23:58;23.98;;;12.27;;
15806;SDS011;8005;51.368;6.140;2022-10-22T17:25:42;19.83;;;9.63;;
15806;SDS011;8005;51.368;6.140;2022-10-22T17:27:14;28.80;;;13.98;;
15806;SDS011;8005;51.368;6.140;2022-10-22T17:28:46;36.50;;;17.83;;
15806;SDS011;8005;51.368;6.140;2022-10-22T17:30:19;26.13;;;12.18;;
15806;SDS011;8005;51.368;6.140;2022-10-22T17:31:56;27.08;;;12.40;;
15806;SDS011;8005;51.368;6.140;2022-10-22T17:33:28;25.67;;;12.20;;
15806;SDS011;8005;51.368;6.140;2022-10-22T17:35:00;25.77;;;12.10;;
15806;SDS011;8005;51.368;6.140;2022-10-22T17:36:32;26.58;;;12.02;;
15806;SDS011;8005;51.368;6.140;2022-10-22T17:38:06;27.90;;;13.82;;
15806;SDS011;8005;51.368;6.140;2022-10-22T17:39:48;24.58;;;11.68;;
15806;SDS011;8005;51.368;6.140;2022-10-22T17:41:21;21.83;;;10.38;;
15806;SDS011;8005;51.368;6.140;2022-10-22T17:42:53;17.02;;;7.80;;
15806;SDS011;8005;51.368;6.140;2022-10-22T17:44:25;13.93;;;5.15;;
15806;SDS011;8005;51.368;6.140;2022-10-22T17:46:05;19.02;;;5.88;;
15806;SDS011;8005;51.368;6.140;2022-10-22T17:47:37;14.40;;;6.13;;
15806;SDS011;8005;51.368;6.140;2022-10-22T17:49:16;17.05;;;5.95;;
15806;SDS011;8005;51.368;6.140;2022-10-22T17:50:48;12.75;;;6.18;;
15806;SDS011;8005;51.368;6.140;2022-10-22T18:03:24;13.35;;;5.88;;
15806;SDS011;8005;51.368;6.140;2022-10-22T18:59:03;10.63;;;5.78;;
15806;SDS011;8005;51.368;6.140;2022-10-22T19:00:44;10.27;;;6.65;;
15806;SDS011;8005;51.368;6.140;2022-10-22T19:09:22;23.33;;;14.95;;
15806;SDS011;8005;51.368;6.140;2022-10-22T19:27:50;43.75;;;29.05;;
15806;SDS011;8005;51.368;6.140;2022-10-22T19:29:27;48.13;;;30.15;;
15806;SDS011;8005;51.368;6.140;2022-10-22T19:31:15;41.35;;;27.88;;
15806;SDS011;8005;51.368;6.140;2022-10-22T19:35:04;38.15;;;25.65;;
15806;SDS011;8005;51.368;6.140;2022-10-22T19:37:06;38.95;;;25.02;;
15806;SDS011;8005;51.368;6.140;2022-10-22T19:38:39;33.95;;;21.10;;
15806;SDS011;8005;51.368;6.140;2022-10-22T19:42:05;24.85;;;14.02;;
15806;SDS011;8005;51.368;6.140;2022-10-22T19:46:31;15.85;;;7.45;;
15806;SDS011;8005;51.368;6.140;2022-10-22T19:50:22;12.10;;;6.82;;
15806;SDS011;8005;51.368;6.140;2022-10-22T19:52:51;13.63;;;7.18;;
15806;SDS011;8005;51.368;6.140;2022-10-22T19:57:23;12.25;;;6.20;;
15806;SDS011;8005;51.368;6.140;2022-10-22T19:59:47;11.63;;;6.35;;
15806;SDS011;8005;51.368;6.140;2022-10-22T20:02:30;13.98;;;7.60;;
15806;SDS011;8005;51.368;6.140;2022-10-22T20:16:34;13.20;;;5.72;;
15806;SDS011;8005;51.368;6.140;2022-10-22T22:17:58;9.88;;;3.67;;
15806;SDS011;8005;51.368;6.140;2022-10-22T22:20:05;7.60;;;3.38;;
15806;SDS011;8005;51.368;6.140;2022-10-22T22:22:26;10.52;;;3.08;;
